Terminal Aerodrome Forecast
Issued by NWS

Home | Current Version | Previous Version | Text Only | Print | Product List | Glossary On
Versions: 1 2 3 4 5 6 7 8 9 10 11 12 13 14
109
FTUS42 KGSP 231124
TAFAND
TAF
KAND 231124Z 2312/2412 VRB03KT P6SM SCT250
     FM231700 24006KT P6SM SCT050 SCT250
     FM232000 25008KT P6SM VCTS BKN050CB BKN250 PROB30 2321/2401 4SM
      -TSRA OVC025CB
     FM240100 27005KT P6SM SCT060 BKN250=

USA.gov is the U.S. government's official web portal to all federal, state and local government web resources and services.